sensor_id;sensor_type;location;lat;lon;timestamp;pressure;altitude;pressure_sealevel;temperature;humidity
42169;BME280;27838;43.858;25.974;2023-08-30T00:01:23;99888.78;;;30.92;35.60
42169;BME280;27838;43.858;25.974;2023-08-30T00:03:50;99883.41;;;30.92;35.55
42169;BME280;27838;43.858;25.974;2023-08-30T00:06:16;99893.75;;;30.97;35.66
42169;BME280;27838;43.858;25.974;2023-08-30T00:08:44;99882.22;;;31.04;35.49
42169;BME280;27838;43.858;25.974;2023-08-30T00:11:10;99879.63;;;31.13;35.35
42169;BME280;27838;43.858;25.974;2023-08-30T00:13:37;99888.31;;;31.24;35.11
42169;BME280;27838;43.858;25.974;2023-08-30T00:16:03;99893.22;;;31.29;35.29
42169;BME280;27838;43.858;25.974;2023-08-30T00:18:30;99896.28;;;31.34;34.89
42169;BME280;27838;43.858;25.974;2023-08-30T00:20:57;99876.84;;;31.40;34.60
42169;BME280;27838;43.858;25.974;2023-08-30T00:23:23;99871.50;;;31.49;34.70
42169;BME280;27838;43.858;25.974;2023-08-30T00:25:50;99859.47;;;31.53;34.48
42169;BME280;27838;43.858;25.974;2023-08-30T00:28:17;99843.69;;;31.58;34.35
42169;BME280;27838;43.858;25.974;2023-08-30T00:30:43;99845.69;;;31.56;34.21
42169;BME280;27838;43.858;25.974;2023-08-30T00:33:10;99853.66;;;31.66;34.22
42169;BME280;27838;43.858;25.974;2023-08-30T00:35:36;99857.03;;;31.68;34.02
42169;BME280;27838;43.858;25.974;2023-08-30T00:38:03;99845.78;;;31.72;33.97
42169;BME280;27838;43.858;25.974;2023-08-30T00:40:37;99843.47;;;31.77;33.90
42169;BME280;27838;43.858;25.974;2023-08-30T00:43:04;99853.22;;;31.78;33.79
42169;BME280;27838;43.858;25.974;2023-08-30T00:45:32;99864.72;;;31.80;33.91
42169;BME280;27838;43.858;25.974;2023-08-30T00:47:59;99865.69;;;31.79;34.06
42169;BME280;27838;43.858;25.974;2023-08-30T00:50:25;99854.09;;;31.79;34.13
42169;BME280;27838;43.858;25.974;2023-08-30T00:52:52;99850.50;;;31.70;34.41
42169;BME280;27838;43.858;25.974;2023-08-30T00:55:18;99866.16;;;31.75;34.39
42169;BME280;27838;43.858;25.974;2023-08-30T00:57:45;99853.88;;;31.72;34.29
42169;BME280;27838;43.858;25.974;2023-08-30T01:00:12;99850.50;;;31.70;34.63
42169;BME280;27838;43.858;25.974;2023-08-30T01:02:38;99851.94;;;31.65;34.77
42169;BME280;27838;43.858;25.974;2023-08-30T01:05:05;99850.38;;;31.54;34.87
42169;BME280;27838;43.858;25.974;2023-08-30T01:07:32;99863.00;;;31.53;35.17
42169;BME280;27838;43.858;25.974;2023-08-30T01:09:58;99860.03;;;31.47;35.04
42169;BME280;27838;43.858;25.974;2023-08-30T01:12:32;99865.16;;;31.50;35.40
42169;BME280;27838;43.858;25.974;2023-08-30T01:15:11;99871.13;;;31.43;34.99
42169;BME280;27838;43.858;25.974;2023-08-30T01:17:39;99870.06;;;31.36;35.24
42169;BME280;27838;43.858;25.974;2023-08-30T01:20:08;99872.34;;;31.31;35.57
42169;BME280;27838;43.858;25.974;2023-08-30T01:25:31;99885.53;;;31.16;36.50
42169;BME280;27838;43.858;25.974;2023-08-30T01:28:02;99874.69;;;31.08;36.66
42169;BME280;27838;43.858;25.974;2023-08-30T01:30:32;99886.22;;;31.00;36.70
42169;BME280;27838;43.858;25.974;2023-08-30T01:33:00;99875.06;;;30.95;36.83
42169;BME280;27838;43.858;25.974;2023-08-30T01:35:29;99876.75;;;30.96;36.74
42169;BME280;27838;43.858;25.974;2023-08-30T01:38:03;99880.59;;;30.94;36.88
42169;BME280;27838;43.858;25.974;2023-08-30T01:40:35;99873.28;;;30.86;36.85
42169;BME280;27838;43.858;25.974;2023-08-30T01:43:04;99868.78;;;30.77;36.95
42169;BME280;27838;43.858;25.974;2023-08-30T01:45:35;99879.00;;;30.73;37.33
42169;BME280;27838;43.858;25.974;2023-08-30T01:48:03;99885.84;;;30.67;37.35
42169;BME280;27838;43.858;25.974;2023-08-30T01:50:32;99876.81;;;30.59;37.50
42169;BME280;27838;43.858;25.974;2023-08-30T01:52:59;99877.94;;;30.56;37.72
42169;BME280;27838;43.858;25.974;2023-08-30T01:55:28;99875.88;;;30.50;37.75
42169;BME280;27838;43.858;25.974;2023-08-30T01:57:56;99868.09;;;30.47;37.90
42169;BME280;27838;43.858;25.974;2023-08-30T02:00:22;99868.09;;;30.47;37.78
42169;BME280;27838;43.858;25.974;2023-08-30T02:02:49;99869.81;;;30.48;37.70
42169;BME280;27838;43.858;25.974;2023-08-30T02:05:15;99871.47;;;30.49;37.66
42169;BME280;27838;43.858;25.974;2023-08-30T02:07:55;99876.72;;;30.50;37.56
42169;BME280;27838;43.858;25.974;2023-08-30T02:10:24;99867.81;;;30.50;37.63
42169;BME280;27838;43.858;25.974;2023-08-30T02:12:54;99857.66;;;30.44;37.69
42169;BME280;27838;43.858;25.974;2023-08-30T02:15:24;99857.66;;;30.44;37.69
42169;BME280;27838;43.858;25.974;2023-08-30T02:17:51;99861.78;;;30.38;37.61
42169;BME280;27838;43.858;25.974;2023-08-30T02:20:18;99869.00;;;30.38;38.01
42169;BME280;27838;43.858;25.974;2023-08-30T02:22:44;99872.69;;;30.37;37.87
42169;BME280;27838;43.858;25.974;2023-08-30T02:25:11;99865.75;;;30.34;37.95
42169;BME280;27838;43.858;25.974;2023-08-30T02:27:38;99865.88;;;30.33;37.93
42169;BME280;27838;43.858;25.974;2023-08-30T02:30:05;99855.28;;;30.31;37.98
42169;BME280;27838;43.858;25.974;2023-08-30T02:32:32;99851.22;;;30.27;37.93
42169;BME280;27838;43.858;25.974;2023-08-30T02:34:58;99855.03;;;30.24;37.82
42169;BME280;27838;43.858;25.974;2023-08-30T02:37:25;99854.94;;;30.16;38.04
42169;BME280;27838;43.858;25.974;2023-08-30T02:39:51;99865.09;;;30.12;38.46
42169;BME280;27838;43.858;25.974;2023-08-30T02:42:18;99863.72;;;30.08;38.38
42169;BME280;27838;43.858;25.974;2023-08-30T02:44:44;99864.00;;;30.05;38.57
42169;BME280;27838;43.858;25.974;2023-08-30T02:47:11;99861.78;;;30.01;38.55
42169;BME280;27838;43.858;25.974;2023-08-30T02:49:37;99864.91;;;29.96;38.87
42169;BME280;27838;43.858;25.974;2023-08-30T02:52:04;99870.41;;;29.94;38.99
42169;BME280;27838;43.858;25.974;2023-08-30T02:54:31;99879.31;;;29.95;39.19
42169;BME280;27838;43.858;25.974;2023-08-30T02:56:57;99877.78;;;29.92;39.29
42169;BME280;27838;43.858;25.974;2023-08-30T02:59:24;99876.38;;;29.88;39.56
42169;BME280;27838;43.858;25.974;2023-08-30T03:01:50;99888.38;;;29.84;39.82
42169;BME280;27838;43.858;25.974;2023-08-30T03:04:17;99886.13;;;29.70;40.39
42169;BME280;27838;43.858;25.974;2023-08-30T03:06:43;99888.69;;;29.62;40.19
42169;BME280;27838;43.858;25.974;2023-08-30T03:09:10;99888.56;;;29.53;40.48
42169;BME280;27838;43.858;25.974;2023-08-30T03:11:37;99897.19;;;29.47;40.91
42169;BME280;27838;43.858;25.974;2023-08-30T03:14:03;99904.53;;;29.45;40.84
42169;BME280;27838;43.858;25.974;2023-08-30T03:16:30;99901.84;;;29.45;41.28
42169;BME280;27838;43.858;25.974;2023-08-30T03:18:57;99892.53;;;29.40;41.31
42169;BME280;27838;43.858;25.974;2023-08-30T03:21:24;99885.47;;;29.29;41.24
42169;BME280;27838;43.858;25.974;2023-08-30T03:23:50;99897.47;;;29.25;41.79
42169;BME280;27838;43.858;25.974;2023-08-30T03:26:17;99899.72;;;29.19;42.22
42169;BME280;27838;43.858;25.974;2023-08-30T03:28:44;99900.03;;;29.16;42.05
42169;BME280;27838;43.858;25.974;2023-08-30T03:31:18;99902.34;;;29.00;42.59
42169;BME280;27838;43.858;25.974;2023-08-30T03:33:45;99904.28;;;28.78;43.27
42169;BME280;27838;43.858;25.974;2023-08-30T03:36:14;99909.75;;;28.67;43.63
42169;BME280;27838;43.858;25.974;2023-08-30T03:38:41;99914.66;;;28.62;43.76
42169;BME280;27838;43.858;25.974;2023-08-30T03:41:11;99905.25;;;28.68;43.88
42169;BME280;27838;43.858;25.974;2023-08-30T03:43:37;99909.88;;;28.66;44.09
42169;BME280;27838;43.858;25.974;2023-08-30T03:46:04;99907.91;;;28.58;44.09
42169;BME280;27838;43.858;25.974;2023-08-30T03:48:31;99913.69;;;28.63;44.24
42169;BME280;27838;43.858;25.974;2023-08-30T03:50:58;99912.00;;;28.62;44.22
42169;BME280;27838;43.858;25.974;2023-08-30T03:53:25;99923.16;;;28.57;44.35
42169;BME280;27838;43.858;25.974;2023-08-30T03:55:51;99921.22;;;28.48;44.68
42169;BME280;27838;43.858;25.974;2023-08-30T03:58:18;99922.75;;;28.41;45.08
42169;BME280;27838;43.858;25.974;2023-08-30T04:00:45;99925.97;;;28.35;45.33
42169;BME280;27838;43.858;25.974;2023-08-30T04:03:14;99919.03;;;28.32;45.14
42169;BME280;27838;43.858;25.974;2023-08-30T04:05:41;99905.66;;;28.32;45.08
42169;BME280;27838;43.858;25.974;2023-08-30T04:08:08;99905.38;;;28.35;45.29
42169;BME280;27838;43.858;25.974;2023-08-30T04:10:36;99913.16;;;28.38;45.22
42169;BME280;27838;43.858;25.974;2023-08-30T04:13:03;99915.41;;;28.33;45.59
42169;BME280;27838;43.858;25.974;2023-08-30T04:15:33;99927.09;;;28.32;45.55
42169;BME280;27838;43.858;25.974;2023-08-30T04:18:01;99924.81;;;28.28;46.07
42169;BME280;27838;43.858;25.974;2023-08-30T04:20:28;99928.13;;;28.10;46.41
42169;BME280;27838;43.858;25.974;2023-08-30T04:22:54;99926.28;;;28.11;46.22
42169;BME280;27838;43.858;25.974;2023-08-30T04:25:22;99931.19;;;28.05;46.48
42169;BME280;27838;43.858;25.974;2023-08-30T04:27:48;99936.59;;;28.15;46.44
42169;BME280;27838;43.858;25.974;2023-08-30T04:30:16;99943.97;;;28.23;46.32
42169;BME280;27838;43.858;25.974;2023-08-30T04:32:42;99937.63;;;28.24;46.37
42169;BME280;27838;43.858;25.974;2023-08-30T04:35:09;99937.09;;;28.30;45.86
42169;BME280;27838;43.858;25.974;2023-08-30T04:37:36;99940.94;;;28.37;46.09
42169;BME280;27838;43.858;25.974;2023-08-30T04:40:04;99925.91;;;28.25;46.11
42169;BME280;27838;43.858;25.974;2023-08-30T04:42:30;99936.38;;;28.28;45.74
42169;BME280;27838;43.858;25.974;2023-08-30T04:44:57;99941.47;;;28.31;46.02
42169;BME280;27838;43.858;25.974;2023-08-30T04:47:26;99948.66;;;28.31;45.94
42169;BME280;27838;43.858;25.974;2023-08-30T04:49:53;99953.34;;;28.38;45.45
42169;BME280;27838;43.858;25.974;2023-08-30T04:52:20;99951.66;;;28.37;45.25
42169;BME280;27838;43.858;25.974;2023-08-30T04:54:46;99955.94;;;28.50;45.11
42169;BME280;27838;43.858;25.974;2023-08-30T04:57:14;99955.44;;;28.56;44.97
42169;BME280;27838;43.858;25.974;2023-08-30T04:59:42;99963.94;;;28.61;44.70
42169;BME280;27838;43.858;25.974;2023-08-30T05:02:09;99972.41;;;28.66;44.44
42169;BME280;27838;43.858;25.974;2023-08-30T05:04:36;99973.00;;;28.49;44.53
42169;BME280;27838;43.858;25.974;2023-08-30T05:07:03;99982.47;;;28.53;44.90
42169;BME280;27838;43.858;25.974;2023-08-30T05:09:30;99993.19;;;28.53;44.75
42169;BME280;27838;43.858;25.974;2023-08-30T05:11:57;99998.47;;;28.33;45.45
42169;BME280;27838;43.858;25.974;2023-08-30T05:14:24;99989.50;;;28.23;45.27
42169;BME280;27838;43.858;25.974;2023-08-30T05:16:51;100004.88;;;28.21;45.79
42169;BME280;27838;43.858;25.974;2023-08-30T05:19:17;100008.53;;;28.20;46.18
42169;BME280;27838;43.858;25.974;2023-08-30T05:21:44;99999.84;;;28.28;45.90
42169;BME280;27838;43.858;25.974;2023-08-30T05:24:10;99996.59;;;28.24;46.45
42169;BME280;27838;43.858;25.974;2023-08-30T05:26:37;100005.66;;;28.33;45.91
42169;BME280;27838;43.858;25.974;2023-08-30T05:29:03;100003.38;;;28.28;46.23
42169;BME280;27838;43.858;25.974;2023-08-30T05:31:30;100015.00;;;28.38;45.78
42169;BME280;27838;43.858;25.974;2023-08-30T05:33:57;100016.84;;;28.38;45.95
42169;BME280;27838;43.858;25.974;2023-08-30T05:36:23;100018.63;;;28.37;45.70
42169;BME280;27838;43.858;25.974;2023-08-30T05:38:50;100008.00;;;28.26;46.21
42169;BME280;27838;43.858;25.974;2023-08-30T05:41:16;100012.69;;;28.34;45.99
42169;BME280;27838;43.858;25.974;2023-08-30T05:43:43;100015.00;;;28.38;46.21
42169;BME280;27838;43.858;25.974;2023-08-30T05:46:09;100018.25;;;28.42;46.10
42169;BME280;27838;43.858;25.974;2023-08-30T05:48:40;100028.97;;;28.42;45.43
42169;BME280;27838;43.858;25.974;2023-08-30T05:51:06;100032.50;;;28.42;45.35
42169;BME280;27838;43.858;25.974;2023-08-30T05:53:33;100033.03;;;28.36;45.32
42169;BME280;27838;43.858;25.974;2023-08-30T05:56:00;100038.41;;;28.36;45.10
42169;BME280;27838;43.858;25.974;2023-08-30T05:58:26;100039.94;;;28.39;45.15
42169;BME280;27838;43.858;25.974;2023-08-30T06:00:53;100021.56;;;28.34;45.17
42169;BME280;27838;43.858;25.974;2023-08-30T06:03:19;100040.03;;;28.49;44.83
42169;BME280;27838;43.858;25.974;2023-08-30T06:05:46;100050.81;;;28.58;44.81
42169;BME280;27838;43.858;25.974;2023-08-30T06:08:14;100047.63;;;28.65;44.56
42169;BME280;27838;43.858;25.974;2023-08-30T06:10:40;100033.78;;;28.69;44.03
42169;BME280;27838;43.858;25.974;2023-08-30T06:13:07;100047.50;;;28.76;43.67
42169;BME280;27838;43.858;25.974;2023-08-30T06:15:35;100041.38;;;28.85;43.83
42169;BME280;27838;43.858;25.974;2023-08-30T06:18:03;100048.03;;;28.91;43.34
42169;BME280;27838;43.858;25.974;2023-08-30T06:20:30;100050.38;;;28.84;43.48
42169;BME280;27838;43.858;25.974;2023-08-30T06:22:57;100045.16;;;28.83;43.21
42169;BME280;27838;43.858;25.974;2023-08-30T06:25:24;100042.72;;;28.79;43.46
42169;BME280;27838;43.858;25.974;2023-08-30T06:27:58;100045.50;;;28.68;43.60
42169;BME280;27838;43.858;25.974;2023-08-30T06:30:26;100045.84;;;28.75;43.76
42169;BME280;27838;43.858;25.974;2023-08-30T06:32:53;100045.03;;;28.84;43.73
42169;BME280;27838;43.858;25.974;2023-08-30T06:35:20;100042.22;;;28.86;43.76
42169;BME280;27838;43.858;25.974;2023-08-30T06:37:46;100044.44;;;28.80;43.73
42169;BME280;27838;43.858;25.974;2023-08-30T06:40:13;100044.44;;;28.80;43.71
42169;BME280;27838;43.858;25.974;2023-08-30T06:42:40;100051.78;;;28.78;44.19
42169;BME280;27838;43.858;25.974;2023-08-30T06:45:06;100046.16;;;28.81;43.83
42169;BME280;27838;43.858;25.974;2023-08-30T06:47:33;100053.78;;;28.86;43.96
42169;BME280;27838;43.858;25.974;2023-08-30T06:50:00;100059.97;;;28.87;43.79
42169;BME280;27838;43.858;25.974;2023-08-30T06:52:28;100056.91;;;28.91;43.83
42169;BME280;27838;43.858;25.974;2023-08-30T06:54:55;100052.69;;;28.98;43.83
42169;BME280;27838;43.858;25.974;2023-08-30T06:57:22;100055.56;;;29.07;43.63
42169;BME280;27838;43.858;25.974;2023-08-30T06:59:48;100053.19;;;29.13;43.62
42169;BME280;27838;43.858;25.974;2023-08-30T07:02:15;100055.91;;;29.23;43.74
42169;BME280;27838;43.858;25.974;2023-08-30T07:04:41;100046.59;;;29.17;43.38
42169;BME280;27838;43.858;25.974;2023-08-30T07:07:08;100048.28;;;29.18;43.31
42169;BME280;27838;43.858;25.974;2023-08-30T07:09:34;100048.75;;;29.24;43.16
42169;BME280;27838;43.858;25.974;2023-08-30T07:12:01;100054.97;;;29.34;43.14
42169;BME280;27838;43.858;25.974;2023-08-30T07:14:27;100050.03;;;29.39;43.12
42169;BME280;27838;43.858;25.974;2023-08-30T07:16:54;100056.00;;;29.43;43.44
42169;BME280;27838;43.858;25.974;2023-08-30T07:19:20;100057.41;;;29.56;43.16
42169;BME280;27838;43.858;25.974;2023-08-30T07:21:47;100046.69;;;29.66;42.92
42169;BME280;27838;43.858;25.974;2023-08-30T07:24:13;100043.44;;;29.72;42.92
42169;BME280;27838;43.858;25.974;2023-08-30T07:26:40;100055.16;;;29.71;42.54
42169;BME280;27838;43.858;25.974;2023-08-30T07:29:06;100046.13;;;29.72;42.59
42169;BME280;27838;43.858;25.974;2023-08-30T07:31:33;100048.41;;;29.77;42.61
42169;BME280;27838;43.858;25.974;2023-08-30T07:34:00;100044.75;;;29.78;42.05
42169;BME280;27838;43.858;25.974;2023-08-30T07:36:27;100035.84;;;29.87;42.34
42169;BME280;27838;43.858;25.974;2023-08-30T07:38:53;100040.22;;;29.88;42.32
42169;BME280;27838;43.858;25.974;2023-08-30T07:41:20;100035.72;;;29.99;41.73
42169;BME280;27838;43.858;25.974;2023-08-30T07:43:46;100038.66;;;30.05;42.03
42169;BME280;27838;43.858;25.974;2023-08-30T07:46:13;100030.91;;;30.02;41.83
42169;BME280;27838;43.858;25.974;2023-08-30T07:48:39;100041.06;;;30.08;41.57
42169;BME280;27838;43.858;25.974;2023-08-30T07:51:06;100035.13;;;30.05;41.38
42169;BME280;27838;43.858;25.974;2023-08-30T07:53:32;100035.25;;;30.03;41.64
42169;BME280;27838;43.858;25.974;2023-08-30T07:55:59;100034.25;;;30.14;41.72
42169;BME280;27838;43.858;25.974;2023-08-30T07:58:26;100025.03;;;30.26;41.47
42169;BME280;27838;43.858;25.974;2023-08-30T08:00:53;100033.81;;;30.38;41.10
42169;BME280;27838;43.858;25.974;2023-08-30T08:03:20;100028.16;;;30.51;41.23
42169;BME280;27838;43.858;25.974;2023-08-30T08:05:47;100023.81;;;30.68;40.56
42169;BME280;27838;43.858;25.974;2023-08-30T08:08:14;100020.81;;;30.81;40.21
42169;BME280;27838;43.858;25.974;2023-08-30T08:10:44;100033.81;;;30.95;40.09
42169;BME280;27838;43.858;25.974;2023-08-30T08:13:11;100030.69;;;30.90;39.79
42169;BME280;27838;43.858;25.974;2023-08-30T08:15:38;100031.28;;;30.84;40.04
42169;BME280;27838;43.858;25.974;2023-08-30T08:18:04;100026.97;;;30.91;40.00
42169;BME280;27838;43.858;25.974;2023-08-30T08:20:32;100025.44;;;30.98;39.51
42169;BME280;27838;43.858;25.974;2023-08-30T08:22:58;100029.41;;;30.94;39.32
42169;BME280;27838;43.858;25.974;2023-08-30T08:25:25;100016.84;;;30.95;39.43
42169;BME280;27838;43.858;25.974;2023-08-30T08:27:51;100019.16;;;31.08;39.22
42169;BME280;27838;43.858;25.974;2023-08-30T08:30:18;100017.66;;;31.23;39.17
42169;BME280;27838;43.858;25.974;2023-08-30T08:32:46;100016.06;;;31.30;38.63
42169;BME280;27838;43.858;25.974;2023-08-30T08:35:13;100021.91;;;31.43;38.45
42169;BME280;27838;43.858;25.974;2023-08-30T08:37:39;100018.34;;;31.53;38.00
42169;BME280;27838;43.858;25.974;2023-08-30T08:40:06;100016.88;;;31.58;38.02
42169;BME280;27838;43.858;25.974;2023-08-30T08:42:35;100013.00;;;31.61;37.75
42169;BME280;27838;43.858;25.974;2023-08-30T08:45:03;100011.25;;;31.70;38.17
42169;BME280;27838;43.858;25.974;2023-08-30T08:47:30;100013.41;;;31.66;38.00
42169;BME280;27838;43.858;25.974;2023-08-30T08:49:57;100009.72;;;31.67;38.32
42169;BME280;27838;43.858;25.974;2023-08-30T08:52:25;100017.16;;;31.73;37.90
42169;BME280;27838;43.858;25.974;2023-08-30T08:54:52;100016.63;;;31.70;37.37
42169;BME280;27838;43.858;25.974;2023-08-30T08:57:21;100021.81;;;31.63;37.93
42169;BME280;27838;43.858;25.974;2023-08-30T08:59:47;100014.44;;;31.65;37.58
42169;BME280;27838;43.858;25.974;2023-08-30T09:02:15;100020.59;;;31.75;37.07
42169;BME280;27838;43.858;25.974;2023-08-30T09:04:42;100001.47;;;31.87;36.68
42169;BME280;27838;43.858;25.974;2023-08-30T09:07:09;100010.94;;;32.09;36.63
42169;BME280;27838;43.858;25.974;2023-08-30T09:09:36;100004.59;;;32.18;35.37
42169;BME280;27838;43.858;25.974;2023-08-30T09:12:03;99996.88;;;32.23;34.84
42169;BME280;27838;43.858;25.974;2023-08-30T09:14:30;99996.44;;;32.28;36.26
42169;BME280;27838;43.858;25.974;2023-08-30T09:17:01;99989.84;;;32.30;36.15
42169;BME280;27838;43.858;25.974;2023-08-30T09:19:29;99995.31;;;32.39;36.17
42169;BME280;27838;43.858;25.974;2023-08-30T09:21:57;99984.41;;;32.48;36.04
42169;BME280;27838;43.858;25.974;2023-08-30T09:24:24;99984.91;;;32.52;35.82
42169;BME280;27838;43.858;25.974;2023-08-30T09:26:53;99980.38;;;32.52;35.73
42169;BME280;27838;43.858;25.974;2023-08-30T09:29:21;99966.25;;;32.59;35.38
42169;BME280;27838;43.858;25.974;2023-08-30T09:31:51;99969.19;;;32.65;35.34
42169;BME280;27838;43.858;25.974;2023-08-30T09:34:22;99970.72;;;32.68;35.96
42169;BME280;27838;43.858;25.974;2023-08-30T09:36:49;99971.25;;;32.80;35.68
42169;BME280;27838;43.858;25.974;2023-08-30T09:39:16;99965.91;;;32.88;35.32
42169;BME280;27838;43.858;25.974;2023-08-30T09:41:47;99966.59;;;32.98;35.42
42169;BME280;27838;43.858;25.974;2023-08-30T09:44:18;99965.84;;;33.14;35.29
42169;BME280;27838;43.858;25.974;2023-08-30T09:46:50;99958.78;;;33.29;34.28
42169;BME280;27838;43.858;25.974;2023-08-30T09:49:25;99958.09;;;33.36;33.81
42169;BME280;27838;43.858;25.974;2023-08-30T09:51:52;99961.34;;;33.56;34.28
42169;BME280;27838;43.858;25.974;2023-08-30T09:54:24;99966.25;;;33.68;33.47
42169;BME280;27838;43.858;25.974;2023-08-30T09:56:51;99961.03;;;33.75;34.12
42169;BME280;27838;43.858;25.974;2023-08-30T09:59:18;99956.84;;;33.73;33.65
42169;BME280;27838;43.858;25.974;2023-08-30T10:01:47;99957.66;;;33.73;33.97
42169;BME280;27838;43.858;25.974;2023-08-30T10:04:15;99954.28;;;33.71;33.82
42169;BME280;27838;43.858;25.974;2023-08-30T10:06:42;99948.38;;;33.76;34.01
42169;BME280;27838;43.858;25.974;2023-08-30T10:09:09;99951.22;;;33.82;34.16
42169;BME280;27838;43.858;25.974;2023-08-30T10:11:37;99948.03;;;33.87;33.82
42169;BME280;27838;43.858;25.974;2023-08-30T10:14:05;99949.53;;;33.98;33.18
42169;BME280;27838;43.858;25.974;2023-08-30T10:16:40;99936.34;;;34.03;32.68
42169;BME280;27838;43.858;25.974;2023-08-30T10:19:27;99946.28;;;34.11;32.79
42169;BME280;27838;43.858;25.974;2023-08-30T10:22:01;99931.44;;;34.15;32.70
42169;BME280;27838;43.858;25.974;2023-08-30T10:24:32;99938.03;;;34.20;32.35
42169;BME280;27838;43.858;25.974;2023-08-30T10:27:04;99926.00;;;34.23;31.97
42169;BME280;27838;43.858;25.974;2023-08-30T10:29:35;99933.78;;;34.26;31.28
42169;BME280;27838;43.858;25.974;2023-08-30T10:32:06;99920.09;;;34.19;30.87
42169;BME280;27838;43.858;25.974;2023-08-30T10:34:34;99922.94;;;34.18;31.69
42169;BME280;27838;43.858;25.974;2023-08-30T10:37:02;99932.78;;;34.19;31.84
42169;BME280;27838;43.858;25.974;2023-08-30T10:39:37;99925.66;;;34.26;30.81
42169;BME280;27838;43.858;25.974;2023-08-30T10:42:10;99915.19;;;34.31;29.88
42169;BME280;27838;43.858;25.974;2023-08-30T10:44:56;99922.38;;;34.47;30.50
42169;BME280;27838;43.858;25.974;2023-08-30T10:47:30;99918.53;;;34.41;31.60
42169;BME280;27838;43.858;25.974;2023-08-30T10:49:58;99910.75;;;34.38;32.33
42169;BME280;27838;43.858;25.974;2023-08-30T10:52:27;99913.59;;;34.53;31.57
42169;BME280;27838;43.858;25.974;2023-08-30T10:55:14;99910.88;;;34.53;31.24
42169;BME280;27838;43.858;25.974;2023-08-30T10:57:42;99911.41;;;34.49;31.02
42169;BME280;27838;43.858;25.974;2023-08-30T11:00:19;99911.53;;;34.55;31.00
42169;BME280;27838;43.858;25.974;2023-08-30T11:02:48;99901.88;;;34.61;30.56
42169;BME280;27838;43.858;25.974;2023-08-30T11:05:16;99905.91;;;34.65;30.51
42169;BME280;27838;43.858;25.974;2023-08-30T11:07:43;99888.47;;;34.76;30.63
42169;BME280;27838;43.858;25.974;2023-08-30T11:10:11;99890.16;;;35.00;30.32
42169;BME280;27838;43.858;25.974;2023-08-30T11:12:40;99890.56;;;35.20;29.65
42169;BME280;27838;43.858;25.974;2023-08-30T11:15:09;99888.00;;;35.27;29.82
42169;BME280;27838;43.858;25.974;2023-08-30T11:17:36;99891.53;;;35.27;29.55
42169;BME280;27838;43.858;25.974;2023-08-30T11:20:07;99883.25;;;35.29;29.65
42169;BME280;27838;43.858;25.974;2023-08-30T11:22:45;99871.94;;;35.25;29.70
42169;BME280;27838;43.858;25.974;2023-08-30T11:25:13;99872.41;;;35.29;30.15
42169;BME280;27838;43.858;25.974;2023-08-30T11:27:41;99865.94;;;35.30;29.81
42169;BME280;27838;43.858;25.974;2023-08-30T11:30:09;99868.38;;;35.25;30.17
42169;BME280;27838;43.858;25.974;2023-08-30T11:32:37;99849.34;;;35.33;29.94
42169;BME280;27838;43.858;25.974;2023-08-30T11:35:05;99862.16;;;35.39;29.53
42169;BME280;27838;43.858;25.974;2023-08-30T11:37:32;99842.16;;;35.40;29.35
42169;BME280;27838;43.858;25.974;2023-08-30T11:39:59;99851.81;;;35.43;29.11
42169;BME280;27838;43.858;25.974;2023-08-30T11:42:27;99843.84;;;35.41;29.36
42169;BME280;27838;43.858;25.974;2023-08-30T11:44:54;99851.31;;;35.39;28.91
42169;BME280;27838;43.858;25.974;2023-08-30T11:47:23;99836.16;;;35.30;29.26
42169;BME280;27838;43.858;25.974;2023-08-30T11:49:50;99833.56;;;35.36;29.12
42169;BME280;27838;43.858;25.974;2023-08-30T11:52:19;99837.41;;;35.42;29.38
42169;BME280;27838;43.858;25.974;2023-08-30T11:54:47;99822.19;;;35.41;29.08
42169;BME280;27838;43.858;25.974;2023-08-30T11:57:14;99830.19;;;35.34;28.93
42169;BME280;27838;43.858;25.974;2023-08-30T11:59:41;99829.44;;;35.26;28.80
42169;BME280;27838;43.858;25.974;2023-08-30T12:02:07;99826.41;;;35.21;28.97
42169;BME280;27838;43.858;25.974;2023-08-30T12:04:42;99833.69;;;35.20;29.41
42169;BME280;27838;43.858;25.974;2023-08-30T12:07:21;99824.03;;;35.17;29.32
42169;BME280;27838;43.858;25.974;2023-08-30T12:10:03;99813.88;;;35.20;29.18
42169;BME280;27838;43.858;25.974;2023-08-30T12:12:30;99811.50;;;35.25;29.08
42169;BME280;27838;43.858;25.974;2023-08-30T12:15:02;99813.34;;;35.24;29.14
42169;BME280;27838;43.858;25.974;2023-08-30T12:17:36;99818.22;;;35.29;28.89
42169;BME280;27838;43.858;25.974;2023-08-30T12:20:03;99809.06;;;35.30;29.05
42169;BME280;27838;43.858;25.974;2023-08-30T12:22:41;99807.88;;;35.32;29.09
42169;BME280;27838;43.858;25.974;2023-08-30T12:25:21;99800.94;;;35.30;29.40
42169;BME280;27838;43.858;25.974;2023-08-30T12:27:48;99806.94;;;35.25;29.24
42169;BME280;27838;43.858;25.974;2023-08-30T12:30:16;99798.97;;;35.24;29.13
42169;BME280;27838;43.858;25.974;2023-08-30T12:32:43;99799.16;;;35.22;29.07
42169;BME280;27838;43.858;25.974;2023-08-30T12:35:10;99801.88;;;35.22;29.15
42169;BME280;27838;43.858;25.974;2023-08-30T12:37:37;99798.63;;;35.27;29.24
42169;BME280;27838;43.858;25.974;2023-08-30T12:40:04;99795.34;;;35.31;29.30
42169;BME280;27838;43.858;25.974;2023-08-30T12:42:31;99794.78;;;35.36;29.09
42169;BME280;27838;43.858;25.974;2023-08-30T12:44:57;99789.84;;;35.40;29.14
42169;BME280;27838;43.858;25.974;2023-08-30T12:47:24;99788.72;;;35.49;28.62
42169;BME280;27838;43.858;25.974;2023-08-30T12:49:51;99791.25;;;35.50;28.56
42169;BME280;27838;43.858;25.974;2023-08-30T12:52:17;99781.28;;;35.51;28.28
42169;BME280;27838;43.858;25.974;2023-08-30T12:54:44;99785.00;;;35.50;28.61